Pleasureville, KY (40057)

9:24 AM EST on January 29, 2015 (GMT -0500)
Bald Knob | Change Station
CLOSE
Current Station
Personal Weather Station
Location: Frankfort, KY
Elevation: 790 ft
Nearby Weather Stations

Elev 790 ft 38.31 °N, 84.90 °W | Updated 36 seconds ago

Mostly Cloudy
Mostly Cloudy
44.9 °F
Feels Like 45 °F
N
3.0
Wind Variable Wind from SW
Gusts 5.0 mph

Today
High -- | Low -- °F
--% Chance of Precip.
Yesterday
High -- | Low -- °F
Precip. -- in
7:48 AM 5:59 PM
Waxing Gibbous, 74% visible
Pressure 29.94 in
Visibility 10.0 miles
Clouds Scattered Clouds 8000 ft
Windchill 45 °F
Dew Point 35 °F
Humidity 69%
Rainfall 0.00 in
Snow Depth Not available.
UV 0 out of 12
Pollen .30 out of 12
Air Quality Not available.
Flu Activity Not available.
METAR KFFT 291353Z AUTO 20011KT 10SM SCT080 06/00 A2992 RMK AO2 SLP136 T00560000

More Conditions Fewer Conditions

Pressure 29.94 in
Visibility 10.0 miles
Clouds Scattered Clouds 8000 ft
Windchill 45 °F
Dew Point 35 °F
Humidity 69%
Rainfall 0.00 in
Snow Depth Not available.
UV 0 out of 12
Pollen .30 out of 12
Air Quality Not available.
Flu Activity Not available.
METAR KFFT 291353Z AUTO 20011KT 10SM SCT080 06/00 A2992 RMK AO2 SLP136 T00560000

More Conditions Fewer Conditions

10-Day Weather Forecast

Almanac

Astronomy

Jan. 29, 2015 Rise Set
Actual Time
Civil Twilight
Nautical Twilight
Astronomical Twilight
Moon
Length of Visible Light
Length of Day
Tomorrow will be .
, % of the Moon is Illuminated

Today's Extremes

State Highs State Lows

Community

WunderPhotos

Upload Photos

1,791,434 photos uploaded!

WunderBlogs® & News

Nearby

Air Quality

  Air Quality AQ Index Pollutant
Not available.

Snow Depth

Station Depth Elevation

Earthquake Activity

City Distance Mag. Time & Date
Minimum magnitude displayed is 2.5.

Coastal Water Temperatures

Place Temperature

Nearby Weather Stations